East Sullivan, New Hampshire
Current Conditions -  °F | °C
As of 2:35 PM on Thursday 30 Oct 2014 (Local Time) from KEEN Reporting Station
Broken Clouds Broken Clouds  
Wind Chill: 54°   Ceiling: 6000
Heat Index: 54°   Visibility: 10mi
Dew Point: 32°   Wind: 7mph
Humidity: 44%   Direction: 230°SW
Pressure: 29.93"   Gusts: NA
Location:  42.9936°N, 72.1906°W
Report Text: KEEN 301835Z AUTO 23006KT 10SM BKN060 12/00 A2993 RMK AO1
Loading
Personal Weather Stations






























Interactive Weather Map
Tropical Storm Tracking
New forecast layout! Learn more

10-Day Weather Forecast

Advertisements
Track Severe Weather on mobile